Time;durP1;ratioP1;P1;durP2;ratioP2;P2;SDS_P1;SDS_P2;PMS_P1;PMS_P2;Temp;Humidity;BMP_temperature;BMP_pressure;BME280_temperature;BME280_humidity;BME280_pressure;Samples;Min_cycle;Max_cycle;Signal;HPM_P1;HPM_P2
2023/04/21 00:02:09;;;;;;;;;;;10.20;72.00;;;;;;5074478;28;19919;-34
2023/04/21 00:04:35;;;;;;;;;;;10.20;72.00;;;;;;5074409;28;19923;-34
2023/04/21 00:07:03;;;;;;;;;;;10.20;72.30;;;;;;5074329;28;20012;-35
2023/04/21 00:09:28;;;;;;;;;;;10.20;72.50;;;;;;5073947;28;19980;-34
2023/04/21 00:11:54;;;;;;;;;;;10.20;72.50;;;;;;5074073;28;19920;-33
2023/04/21 00:14:19;;;;;;;;;;;10.20;72.50;;;;;;5074146;28;19924;-35
2023/04/21 00:16:45;;;;;;;;;;;10.20;72.50;;;;;;5073863;28;20012;-39
2023/04/21 00:19:12;;;;;;;;;;;10.20;72.50;;;;;;5074411;28;19995;-36
2023/04/21 00:21:38;;;;;;;;;;;10.20;72.40;;;;;;5073786;28;20003;-34
2023/04/21 00:24:04;;;;;;;;;;;10.20;72.60;;;;;;5074126;28;20011;-34
2023/04/21 00:26:29;;;;;;;;;;;10.20;72.60;;;;;;5073744;28;19912;-34
2023/04/21 00:28:55;;;;;;;;;;;10.20;72.70;;;;;;5073748;28;19920;-33
2023/04/21 00:31:20;;;;;;;;;;;10.20;72.70;;;;;;5073554;28;19920;-35
2023/04/21 00:33:46;;;;;;;;;;;10.20;72.80;;;;;;5073404;28;19913;-32
2023/04/21 00:36:11;;;;;;;;;;;10.30;72.90;;;;;;5073602;28;19919;-36
2023/04/21 00:38:37;;;;;;;;;;;10.30;73.00;;;;;;5071970;28;19993;-33
2023/04/21 00:41:02;;;;;;;;;;;10.20;73.00;;;;;;5073515;28;20006;-34
2023/04/21 00:43:28;;;;;;;;;;;10.20;73.10;;;;;;5073351;28;19988;-34
2023/04/21 00:45:53;;;;;;;;;;;10.20;73.20;;;;;;5073461;28;20356;-34
2023/04/21 00:48:19;;;;;;;;;;;10.20;73.40;;;;;;5073377;28;20384;-34
2023/04/21 00:50:45;;;;;;;;;;;10.20;73.50;;;;;;5073077;28;19920;-33
2023/04/21 00:53:11;;;;;;;;;;;10.20;73.50;;;;;;5073078;28;20003;-36
2023/04/21 00:55:37;;;;;;;;;;;10.10;73.50;;;;;;5072981;28;19912;-43
2023/04/21 00:58:02;;;;;;;;;;;10.10;73.60;;;;;;5073110;28;19948;-36
2023/04/21 01:00:28;;;;;;;;;;;10.10;73.90;;;;;;5072742;28;19956;-35
2023/04/21 01:02:54;;;;;;;;;;;10.00;74.00;;;;;;5072613;28;20237;-33
2023/04/21 01:05:19;;;;;;;;;;;10.00;74.20;;;;;;5071594;28;20445;-35
2023/04/21 01:07:45;;;;;;;;;;;10.00;74.30;;;;;;5072292;28;19932;-35
2023/04/21 01:10:10;;;;;;;;;;;9.90;74.40;;;;;;5072209;28;20308;-35
2023/04/21 01:12:45;;;;;;;;;;;9.90;74.60;;;;;;5072291;28;20284;-34
2023/04/21 01:15:12;;;;;;;;;;;9.90;74.80;;;;;;5072160;28;19916;-35
2023/04/21 01:17:39;;;;;;;;;;;9.90;75.00;;;;;;5072100;28;19912;-34
2023/04/21 01:20:09;;;;;;;;;;;9.90;75.20;;;;;;5072548;28;19912;-33
2023/04/21 01:22:36;;;;;;;;;;;9.90;75.30;;;;;;5072184;28;20328;-35
2023/04/21 01:25:02;;;;;;;;;;;9.90;75.30;;;;;;5070507;28;19925;-38
2023/04/21 01:27:28;;;;;;;;;;;9.90;75.40;;;;;;5071922;28;20444;-34
2023/04/21 01:29:54;;;;;;;;;;;9.90;75.40;;;;;;5072224;28;19924;-33
2023/04/21 01:32:21;;;;;;;;;;;10.00;75.40;;;;;;5072390;28;19919;-35
2023/04/21 01:34:47;;;;;;;;;;;10.00;75.40;;;;;;5072447;28;19995;-34
2023/04/21 01:37:14;;;;;;;;;;;10.00;75.40;;;;;;5072545;28;19912;-35
2023/04/21 01:39:41;;;;;;;;;;;10.00;75.60;;;;;;5072339;28;20283;-35
2023/04/21 01:42:07;;;;;;;;;;;10.10;75.70;;;;;;5072364;28;19912;-36
2023/04/21 01:44:33;;;;;;;;;;;10.10;75.70;;;;;;5072539;28;19916;-35
2023/04/21 01:46:58;;;;;;;;;;;10.10;75.80;;;;;;5072239;28;20265;-35
2023/04/21 01:49:24;;;;;;;;;;;10.20;76.50;;;;;;5072154;28;19982;-35
2023/04/21 01:51:49;;;;;;;;;;;10.20;75.90;;;;;;5072156;28;19965;-35
2023/04/21 01:54:15;;;;;;;;;;;10.20;75.90;;;;;;5072283;28;20280;-35
2023/04/21 01:56:40;;;;;;;;;;;10.20;76.00;;;;;;5072097;28;19939;-35
2023/04/21 01:59:06;;;;;;;;;;;10.20;76.10;;;;;;5072145;28;19960;-35
2023/04/21 02:01:31;;;;;;;;;;;10.20;76.20;;;;;;5072477;28;19999;-35
2023/04/21 02:03:57;;;;;;;;;;;10.20;76.30;;;;;;5072128;28;19924;-34
2023/04/21 02:06:22;;;;;;;;;;;10.10;76.30;;;;;;5072144;28;20011;-35
2023/04/21 02:08:48;;;;;;;;;;;10.20;76.40;;;;;;5071855;28;19934;-34
2023/04/21 02:11:13;;;;;;;;;;;10.20;76.50;;;;;;5070626;28;19922;-35
2023/04/21 02:13:39;;;;;;;;;;;10.10;76.50;;;;;;5071990;28;19912;-35
2023/04/21 02:16:05;;;;;;;;;;;10.20;76.70;;;;;;5071959;28;20360;-34
2023/04/21 02:18:30;;;;;;;;;;;10.10;76.60;;;;;;5071846;28;19962;-35
2023/04/21 02:20:56;;;;;;;;;;;10.10;76.70;;;;;;5072332;28;20409;-35
2023/04/21 02:23:21;;;;;;;;;;;10.10;76.70;;;;;;5072160;28;19919;-33
2023/04/21 02:25:46;;;;;;;;;;;10.10;76.70;;;;;;5071736;28;19924;-35
2023/04/21 02:28:12;;;;;;;;;;;10.20;76.70;;;;;;5071799;28;20384;-35
2023/04/21 02:30:37;;;;;;;;;;;10.20;76.80;;;;;;5071530;28;19968;-35
2023/04/21 02:33:03;;;;;;;;;;;10.10;76.80;;;;;;5071892;28;20314;-34
2023/04/21 02:35:28;;;;;;;;;;;10.10;76.80;;;;;;5071583;28;19912;-35
2023/04/21 02:37:54;;;;;;;;;;;10.00;76.70;;;;;;5071832;28;19913;-34
2023/04/21 02:40:20;;;;;;;;;;;10.00;77.10;;;;;;5071910;28;19963;-35
2023/04/21 02:42:45;;;;;;;;;;;10.00;77.30;;;;;;5071746;28;19912;-34
2023/04/21 02:45:11;;;;;;;;;;;9.90;77.40;;;;;;5071811;28;19920;-35
2023/04/21 02:47:36;;;;;;;;;;;9.90;77.40;;;;;;5071663;28;20378;-33
2023/04/21 02:50:03;;;;;;;;;;;9.80;77.50;;;;;;5072075;28;20356;-36
2023/04/21 02:52:28;;;;;;;;;;;9.80;77.50;;;;;;5071803;28;20011;-36
2023/04/21 02:54:53;;;;;;;;;;;9.80;77.50;;;;;;5071622;28;20404;-34
2023/04/21 02:57:19;;;;;;;;;;;9.80;77.50;;;;;;5071850;28;19912;-35
2023/04/21 02:59:45;;;;;;;;;;;9.80;77.60;;;;;;5071646;28;19944;-35
2023/04/21 03:02:10;;;;;;;;;;;9.80;77.70;;;;;;5071765;28;19938;-35
2023/04/21 03:04:36;;;;;;;;;;;9.80;77.60;;;;;;5071499;28;20362;-34
2023/04/21 03:07:02;;;;;;;;;;;9.80;77.60;;;;;;5071769;28;19939;-35
2023/04/21 03:09:27;;;;;;;;;;;9.90;77.70;;;;;;5071435;28;19913;-34
2023/04/21 03:11:53;;;;;;;;;;;9.90;77.70;;;;;;5071459;28;19931;-35
2023/04/21 03:14:18;;;;;;;;;;;9.90;77.60;;;;;;5071704;28;20321;-35
2023/04/21 03:16:44;;;;;;;;;;;9.90;77.60;;;;;;5071448;28;19942;-34
2023/04/21 03:19:09;;;;;;;;;;;10.00;77.70;;;;;;5071462;28;19913;-35
2023/04/21 03:21:35;;;;;;;;;;;9.90;77.70;;;;;;5071535;28;20010;-35
2023/04/21 03:24:01;;;;;;;;;;;10.00;77.80;;;;;;5071516;28;19919;-35
2023/04/21 03:26:26;;;;;;;;;;;10.00;77.80;;;;;;5071525;28;20336;-35
2023/04/21 03:28:52;;;;;;;;;;;10.00;77.80;;;;;;5074298;28;19921;-37
2023/04/21 03:31:17;;;;;;;;;;;10.00;77.90;;;;;;5074920;28;19927;-35
2023/04/21 03:33:43;;;;;;;;;;;10.00;77.80;;;;;;5075033;28;20414;-35
2023/04/21 03:36:08;;;;;;;;;;;10.00;77.80;;;;;;5073566;28;20004;-35
2023/04/21 03:38:34;;;;;;;;;;;10.00;77.90;;;;;;5074859;28;19916;-34
2023/04/21 03:40:59;;;;;;;;;;;9.90;77.90;;;;;;5074726;28;19966;-35
2023/04/21 03:43:25;;;;;;;;;;;9.90;77.90;;;;;;5075021;28;19943;-34
2023/04/21 03:45:50;;;;;;;;;;;9.90;77.90;;;;;;5074564;28;20011;-35
2023/04/21 03:48:15;;;;;;;;;;;9.90;77.90;;;;;;5074600;28;20261;-34
2023/04/21 03:50:41;;;;;;;;;;;10.00;78.00;;;;;;5073052;28;19912;-35
2023/04/21 03:53:06;;;;;;;;;;;10.00;78.00;;;;;;5073218;28;20003;-35
2023/04/21 03:55:32;;;;;;;;;;;10.00;77.90;;;;;;5073118;28;19938;-35
2023/04/21 03:57:57;;;;;;;;;;;10.00;77.90;;;;;;5074465;28;19912;-34
2023/04/21 04:00:23;;;;;;;;;;;10.00;77.80;;;;;;5074421;28;19962;-36
2023/04/21 04:02:48;;;;;;;;;;;10.00;77.80;;;;;;5074132;28;19913;-34
2023/04/21 04:05:14;;;;;;;;;;;10.00;77.90;;;;;;5074295;28;19916;-34
2023/04/21 04:07:40;;;;;;;;;;;10.00;78.00;;;;;;5074301;28;19919;-34
2023/04/21 04:10:05;;;;;;;;;;;10.00;78.00;;;;;;5074145;28;19912;-35
2023/04/21 04:12:31;;;;;;;;;;;10.00;78.60;;;;;;5074210;28;19913;-35
2023/04/21 04:14:56;;;;;;;;;;;10.00;78.00;;;;;;5074087;28;19920;-33
2023/04/21 04:17:22;;;;;;;;;;;10.00;78.00;;;;;;5074008;28;19913;-35
2023/04/21 04:19:47;;;;;;;;;;;10.00;78.00;;;;;;5073869;28;20340;-34
2023/04/21 04:22:13;;;;;;;;;;;10.10;78.10;;;;;;5073968;28;19913;-35
2023/04/21 04:24:38;;;;;;;;;;;10.10;78.10;;;;;;5073596;28;19948;-34
2023/04/21 04:27:04;;;;;;;;;;;10.10;78.00;;;;;;5073735;28;19948;-35
2023/04/21 04:29:30;;;;;;;;;;;10.10;78.00;;;;;;5073480;28;20325;-35
2023/04/21 04:31:56;;;;;;;;;;;10.10;78.10;;;;;;5073605;28;19913;-35
2023/04/21 04:34:22;;;;;;;;;;;10.10;78.10;;;;;;5073560;28;19913;-35
2023/04/21 04:36:49;;;;;;;;;;;10.10;78.20;;;;;;5073560;28;19912;-33
2023/04/21 04:39:17;;;;;;;;;;;10.10;78.20;;;;;;5072351;28;19958;-35
2023/04/21 04:41:42;;;;;;;;;;;10.00;78.20;;;;;;5073459;28;20206;-35
2023/04/21 04:44:08;;;;;;;;;;;10.10;78.40;;;;;;5073315;28;19927;-36
2023/04/21 04:46:34;;;;;;;;;;;10.00;78.30;;;;;;5073754;28;19954;-35
2023/04/21 04:49:00;;;;;;;;;;;10.00;78.40;;;;;;5073318;28;19913;-33
2023/04/21 04:51:25;;;;;;;;;;;10.00;78.40;;;;;;5073580;28;19912;-33
2023/04/21 04:53:51;;;;;;;;;;;10.00;78.50;;;;;;5073246;28;19913;-35
2023/04/21 04:56:16;;;;;;;;;;;10.10;78.60;;;;;;5073446;28;20271;-34
2023/04/21 04:58:42;;;;;;;;;;;10.10;78.60;;;;;;5073249;28;19920;-35
2023/04/21 05:01:11;;;;;;;;;;;10.10;79.20;;;;;;5072948;28;19947;-34
2023/04/21 05:03:37;;;;;;;;;;;10.10;78.60;;;;;;5073195;28;19993;-35
2023/04/21 05:06:02;;;;;;;;;;;10.10;78.60;;;;;;5072960;28;20336;-37
2023/04/21 05:08:28;;;;;;;;;;;10.10;78.60;;;;;;5072924;28;19912;-34
2023/04/21 05:10:53;;;;;;;;;;;10.10;78.60;;;;;;5073041;28;20007;-35
2023/04/21 05:13:19;;;;;;;;;;;10.10;78.60;;;;;;5073108;28;20252;-34
2023/04/21 05:15:44;;;;;;;;;;;10.10;78.90;;;;;;5072914;28;20003;-35
2023/04/21 05:18:10;;;;;;;;;;;10.10;78.80;;;;;;5072846;28;19917;-34
2023/04/21 05:20:35;;;;;;;;;;;10.10;78.80;;;;;;5072766;28;20435;-35
2023/04/21 05:23:01;;;;;;;;;;;10.10;78.90;;;;;;5072827;28;19913;-35
2023/04/21 05:25:26;;;;;;;;;;;10.10;78.90;;;;;;5072706;28;19966;-34
2023/04/21 05:27:52;;;;;;;;;;;10.10;79.00;;;;;;5072738;28;20411;-35
2023/04/21 05:30:17;;;;;;;;;;;10.10;79.00;;;;;;5072550;28;19920;-33
2023/04/21 05:32:43;;;;;;;;;;;10.20;79.00;;;;;;5072815;28;19963;-36
2023/04/21 05:35:08;;;;;;;;;;;10.20;79.60;;;;;;5072521;28;19947;-35
2023/04/21 05:37:34;;;;;;;;;;;10.20;79.00;;;;;;5072596;28;19912;-36
2023/04/21 05:39:59;;;;;;;;;;;10.20;79.00;;;;;;5072700;28;19935;-34
2023/04/21 05:42:25;;;;;;;;;;;10.20;79.00;;;;;;5072398;28;19955;-34
2023/04/21 05:44:50;;;;;;;;;;;10.30;79.00;;;;;;5072337;28;19923;-35
2023/04/21 05:47:16;;;;;;;;;;;10.30;78.90;;;;;;5072264;28;19919;-34
2023/04/21 05:49:48;;;;;;;;;;;10.30;78.90;;;;;;5072105;28;20272;-35
2023/04/21 05:52:14;;;;;;;;;;;10.30;78.90;;;;;;5072273;28;19920;-35
2023/04/21 05:54:39;;;;;;;;;;;10.30;78.90;;;;;;5072241;28;19912;-35
2023/04/21 05:57:07;;;;;;;;;;;10.40;78.90;;;;;;5072140;28;19912;-34
2023/04/21 05:59:32;;;;;;;;;;;10.40;78.90;;;;;;5072288;28;19913;-36
2023/04/21 06:01:58;;;;;;;;;;;10.40;78.80;;;;;;5072301;28;19922;-35
2023/04/21 06:04:23;;;;;;;;;;;10.50;79.00;;;;;;5072120;28;19928;-35
2023/04/21 06:06:49;;;;;;;;;;;10.50;79.00;;;;;;5071997;28;20371;-35
2023/04/21 06:09:15;;;;;;;;;;;10.50;79.00;;;;;;5072028;28;19913;-36
2023/04/21 06:11:40;;;;;;;;;;;10.50;78.90;;;;;;5072108;28;19920;-35
2023/04/21 06:14:06;;;;;;;;;;;10.50;78.80;;;;;;5072109;28;19912;-35
2023/04/21 06:16:32;;;;;;;;;;;10.60;78.90;;;;;;5072131;28;19912;-35
2023/04/21 06:18:58;;;;;;;;;;;10.60;78.90;;;;;;5072057;28;19913;-35
2023/04/21 06:21:24;;;;;;;;;;;10.60;78.80;;;;;;5071999;28;19923;-36
2023/04/21 06:23:50;;;;;;;;;;;10.70;78.80;;;;;;5071951;28;19917;-35
2023/04/21 06:26:15;;;;;;;;;;;10.70;78.80;;;;;;5072017;28;19919;-34
2023/04/21 06:28:41;;;;;;;;;;;10.70;78.70;;;;;;5071825;28;20022;-34
2023/04/21 06:31:06;;;;;;;;;;;10.80;78.80;;;;;;5071719;28;20012;-35
2023/04/21 06:33:32;;;;;;;;;;;10.80;78.70;;;;;;5071912;28;19954;-35
2023/04/21 06:35:57;;;;;;;;;;;10.80;78.70;;;;;;5071958;28;19974;-34
2023/04/21 06:38:23;;;;;;;;;;;10.80;78.70;;;;;;5071883;28;20376;-36
2023/04/21 06:40:49;;;;;;;;;;;10.90;78.70;;;;;;5072042;28;20268;-34
2023/04/21 06:43:15;;;;;;;;;;;11.00;78.80;;;;;;5070054;28;19982;-37
2023/04/21 06:45:40;;;;;;;;;;;11.00;78.60;;;;;;5071442;28;19924;-34
2023/04/21 06:48:06;;;;;;;;;;;11.10;78.60;;;;;;5071808;28;20238;-35
2023/04/21 06:50:31;;;;;;;;;;;11.20;78.50;;;;;;5071639;28;20368;-35
2023/04/21 06:52:57;;;;;;;;;;;11.20;78.40;;;;;;5071582;28;19913;-35
2023/04/21 06:55:22;;;;;;;;;;;11.30;78.30;;;;;;5070063;28;19912;-37
2023/04/21 06:57:48;;;;;;;;;;;11.40;78.40;;;;;;5071600;28;20434;-35
2023/04/21 07:00:13;;;;;;;;;;;11.40;78.30;;;;;;5071661;28;19917;-35
2023/04/21 07:02:40;;;;;;;;;;;11.40;78.20;;;;;;5072912;28;20578;-35
2023/04/21 07:05:06;;;;;;;;;;;11.40;78.30;;;;;;5075451;28;19916;-34
2023/04/21 07:07:32;;;;;;;;;;;11.50;78.20;;;;;;5075495;28;19913;-35
2023/04/21 07:09:57;;;;;;;;;;;11.40;78.20;;;;;;5075073;28;19997;-35
2023/04/21 07:12:23;;;;;;;;;;;11.50;78.20;;;;;;5075322;28;20265;-37
2023/04/21 07:14:48;;;;;;;;;;;11.50;78.20;;;;;;5075052;28;20011;-34
2023/04/21 07:17:14;;;;;;;;;;;11.50;78.10;;;;;;5075161;28;20035;-37
2023/04/21 07:19:39;;;;;;;;;;;11.50;78.20;;;;;;5075290;28;19920;-35
2023/04/21 07:22:05;;;;;;;;;;;11.50;78.20;;;;;;5073685;28;19926;-36
2023/04/21 07:24:31;;;;;;;;;;;11.50;78.30;;;;;;5074937;28;20446;-35
2023/04/21 07:26:56;;;;;;;;;;;11.60;78.30;;;;;;5074859;28;19924;-35
2023/04/21 07:29:22;;;;;;;;;;;11.60;78.20;;;;;;5074820;28;20391;-35
2023/04/21 07:31:47;;;;;;;;;;;11.60;78.20;;;;;;5074791;28;19916;-34
2023/04/21 07:34:13;;;;;;;;;;;11.70;78.20;;;;;;5074229;28;19919;-35
2023/04/21 07:36:38;;;;;;;;;;;11.80;78.10;;;;;;5073946;28;19913;-36
2023/04/21 07:39:04;;;;;;;;;;;11.80;78.00;;;;;;5074459;28;19912;-35
2023/04/21 07:41:29;;;;;;;;;;;11.90;78.00;;;;;;5074871;28;20003;-35
2023/04/21 07:43:55;;;;;;;;;;;12.00;78.00;;;;;;5074824;28;19919;-36
2023/04/21 07:46:22;;;;;;;;;;;12.00;77.90;;;;;;5074776;28;19912;-35
2023/04/21 07:48:47;;;;;;;;;;;12.10;77.80;;;;;;5074315;28;19919;-33
2023/04/21 07:51:16;;;;;;;;;;;12.10;77.80;;;;;;5073157;28;19912;-35
2023/04/21 07:53:42;;;;;;;;;;;12.20;77.70;;;;;;5074445;28;19913;-35
2023/04/21 07:56:07;;;;;;;;;;;12.20;77.70;;;;;;5074398;28;20262;-36
2023/04/21 07:58:33;;;;;;;;;;;12.30;77.60;;;;;;5074601;28;19917;-35
2023/04/21 08:00:58;;;;;;;;;;;12.30;77.50;;;;;;5074279;28;19912;-35
2023/04/21 08:03:24;;;;;;;;;;;12.40;77.50;;;;;;5074285;28;20399;-36
2023/04/21 08:05:50;;;;;;;;;;;12.40;77.30;;;;;;5074226;28;19924;-35
2023/04/21 08:08:19;;;;;;;;;;;12.40;77.20;;;;;;5074241;28;20260;-36
2023/04/21 08:10:45;;;;;;;;;;;12.50;77.10;;;;;;5074173;28;20010;-37
2023/04/21 08:13:10;;;;;;;;;;;12.50;77.40;;;;;;5073843;28;19987;-35
2023/04/21 08:15:35;;;;;;;;;;;12.60;77.20;;;;;;5074165;28;19944;-36
2023/04/21 08:18:01;;;;;;;;;;;12.60;77.20;;;;;;5073955;28;19912;-36
2023/04/21 08:20:27;;;;;;;;;;;12.60;77.10;;;;;;5074082;28;19943;-35
2023/04/21 08:22:52;;;;;;;;;;;12.60;77.10;;;;;;5073989;28;20382;-36
2023/04/21 08:25:17;;;;;;;;;;;12.60;76.90;;;;;;5073867;28;19946;-35
2023/04/21 08:27:43;;;;;;;;;;;12.70;76.90;;;;;;5073942;28;20006;-34
2023/04/21 08:30:09;;;;;;;;;;;12.70;76.70;;;;;;5072235;28;19921;-34
2023/04/21 08:32:34;;;;;;;;;;;12.80;76.60;;;;;;5073909;28;19920;-34
2023/04/21 08:35:00;;;;;;;;;;;12.90;76.60;;;;;;5073756;28;19912;-35
2023/04/21 08:37:25;;;;;;;;;;;13.00;76.40;;;;;;5073795;28;19959;-35
2023/04/21 08:39:52;;;;;;;;;;;13.10;76.20;;;;;;5073562;28;19942;-36
2023/04/21 08:42:17;;;;;;;;;;;13.10;76.10;;;;;;5073661;28;19912;-35
2023/04/21 08:44:43;;;;;;;;;;;13.10;76.20;;;;;;5073703;28;20057;-36
2023/04/21 08:47:10;;;;;;;;;;;13.20;76.10;;;;;;5073582;28;19944;-34
2023/04/21 08:49:36;;;;;;;;;;;13.20;76.00;;;;;;5073590;28;20263;-36
2023/04/21 08:52:02;;;;;;;;;;;13.30;76.10;;;;;;5073641;28;20368;-33
2023/04/21 08:54:27;;;;;;;;;;;13.40;75.90;;;;;;5073507;28;19919;-35
2023/04/21 08:56:52;;;;;;;;;;;13.50;75.70;;;;;;5073551;28;19958;-36
2023/04/21 08:59:18;;;;;;;;;;;13.60;75.30;;;;;;5073437;28;19958;-35
2023/04/21 09:02:05;;;;;;;;;;;13.60;75.30;;;;;;5073393;28;19927;-35
2023/04/21 09:04:30;;;;;;;;;;;13.60;75.20;;;;;;5073304;28;19916;-35
2023/04/21 09:06:56;;;;;;;;;;;13.70;75.10;;;;;;5073458;28;20001;-34
2023/04/21 09:09:21;;;;;;;;;;;13.80;74.90;;;;;;5073007;28;19912;-35
2023/04/21 09:12:00;;;;;;;;;;;13.90;74.90;;;;;;5073008;28;19940;-33
2023/04/21 09:14:35;;;;;;;;;;;13.90;74.70;;;;;;5073194;28;20389;-35
2023/04/21 09:17:03;;;;;;;;;;;13.90;74.60;;;;;;5073034;28;19920;-35
2023/04/21 09:19:32;;;;;;;;;;;13.90;74.40;;;;;;5072920;28;19912;-35
2023/04/21 09:21:58;;;;;;;;;;;14.00;74.50;;;;;;5072678;28;20416;-35
2023/04/21 09:24:24;;;;;;;;;;;13.90;74.50;;;;;;5072480;28;19969;-35
2023/04/21 09:26:53;;;;;;;;;;;14.00;74.60;;;;;;5072250;28;20372;-34
2023/04/21 09:29:22;;;;;;;;;;;13.90;74.50;;;;;;5072607;28;20364;-34
2023/04/21 09:31:48;;;;;;;;;;;13.90;74.40;;;;;;5072743;28;19920;-32
2023/04/21 09:34:18;;;;;;;;;;;13.90;74.40;;;;;;5072760;28;20345;-35
2023/04/21 09:36:44;;;;;;;;;;;13.90;74.30;;;;;;5072746;28;19999;-35
2023/04/21 09:39:10;;;;;;;;;;;14.00;74.00;;;;;;5072605;28;19940;-35
2023/04/21 09:41:35;;;;;;;;;;;14.00;73.90;;;;;;5072694;28;19960;-35
2023/04/21 09:44:03;;;;;;;;;;;14.10;74.00;;;;;;5071195;28;19913;-34
2023/04/21 09:46:32;;;;;;;;;;;14.20;73.60;;;;;;5072654;28;19995;-33
2023/04/21 09:49:01;;;;;;;;;;;14.20;73.50;;;;;;5072567;28;19966;-35
2023/04/21 09:51:28;;;;;;;;;;;14.30;73.40;;;;;;5072635;28;20526;-35
2023/04/21 09:53:57;;;;;;;;;;;14.40;73.30;;;;;;5071171;28;19936;-34
2023/04/21 09:56:24;;;;;;;;;;;14.40;73.30;;;;;;5072406;28;19947;-35
2023/04/21 09:58:53;;;;;;;;;;;14.50;73.10;;;;;;5072430;28;19962;-35
2023/04/21 10:01:19;;;;;;;;;;;14.50;72.70;;;;;;5072494;28;19919;-35
2023/04/21 10:03:47;;;;;;;;;;;14.60;72.90;;;;;;5072753;28;20275;-35
2023/04/21 10:06:12;;;;;;;;;;;14.60;72.90;;;;;;5070972;28;20011;-34
2023/04/21 10:08:38;;;;;;;;;;;14.60;72.90;;;;;;5072275;28;19952;-35
2023/04/21 10:11:04;;;;;;;;;;;14.60;72.50;;;;;;5072495;28;20281;-36
2023/04/21 10:13:30;;;;;;;;;;;14.60;72.90;;;;;;5072667;28;19916;-34
2023/04/21 10:16:06;;;;;;;;;;;14.70;72.10;;;;;;5072422;28;20011;-35
2023/04/21 10:18:36;;;;;;;;;;;14.70;72.30;;;;;;5072487;28;19912;-34
2023/04/21 10:21:02;;;;;;;;;;;14.80;72.30;;;;;;5072361;28;19946;-35
2023/04/21 10:23:29;;;;;;;;;;;14.80;71.90;;;;;;5072434;28;19912;-34
2023/04/21 10:26:02;;;;;;;;;;;14.80;71.80;;;;;;5072070;28;19959;-35
2023/04/21 10:28:47;;;;;;;;;;;14.90;71.80;;;;;;5072319;28;20020;-33
2023/04/21 10:31:16;;;;;;;;;;;15.00;71.60;;;;;;5071893;28;19921;-39
2023/04/21 10:33:42;;;;;;;;;;;15.00;71.10;;;;;;5072344;28;20460;-35
2023/04/21 10:36:10;;;;;;;;;;;15.10;71.30;;;;;;5072801;28;19916;-36
2023/04/21 10:38:40;;;;;;;;;;;15.20;71.00;;;;;;5076157;28;20004;-35
2023/04/21 10:41:24;;;;;;;;;;;15.30;70.80;;;;;;5074588;28;19965;-36
2023/04/21 10:43:50;;;;;;;;;;;15.40;70.90;;;;;;5076100;28;19919;-35
2023/04/21 10:46:34;;;;;;;;;;;15.50;70.90;;;;;;5075934;28;19920;-36
2023/04/21 10:49:03;;;;;;;;;;;15.50;70.40;;;;;;5076114;28;19912;-37
2023/04/21 10:51:31;;;;;;;;;;;15.60;69.50;;;;;;5076193;28;19951;-35
2023/04/21 10:53:57;;;;;;;;;;;15.80;69.80;;;;;;5076008;28;19913;-36
2023/04/21 10:56:23;;;;;;;;;;;15.80;69.50;;;;;;5075954;28;19919;-36
2023/04/21 10:58:50;;;;;;;;;;;15.80;69.70;;;;;;5076113;28;20014;-35
2023/04/21 11:01:16;;;;;;;;;;;15.80;69.80;;;;;;5076082;28;19958;-36
2023/04/21 11:03:41;;;;;;;;;;;15.80;69.50;;;;;;5075776;28;19978;-35
2023/04/21 11:06:19;;;;;;;;;;;15.70;69.20;;;;;;5075944;28;19917;-35
2023/04/21 11:08:57;;;;;;;;;;;15.70;69.30;;;;;;5075781;28;20380;-36
2023/04/21 11:11:23;;;;;;;;;;;15.60;69.40;;;;;;5074440;28;20007;-34
2023/04/21 11:13:48;;;;;;;;;;;15.50;69.70;;;;;;5075628;28;19919;-34
2023/04/21 11:16:14;;;;;;;;;;;15.50;69.80;;;;;;5075435;28;19952;-35
2023/04/21 11:18:40;;;;;;;;;;;15.40;69.80;;;;;;5075539;28;20578;-34
2023/04/21 11:21:07;;;;;;;;;;;15.40;69.90;;;;;;5075569;28;19913;-37
2023/04/21 11:23:32;;;;;;;;;;;15.40;69.90;;;;;;5075336;28;19960;-35
2023/04/21 11:25:58;;;;;;;;;;;15.50;69.80;;;;;;5075558;28;20001;-37
2023/04/21 11:28:23;;;;;;;;;;;15.70;69.50;;;;;;5075365;28;19923;-35
2023/04/21 11:30:49;;;;;;;;;;;15.80;68.90;;;;;;5075089;28;19921;-34
2023/04/21 11:33:15;;;;;;;;;;;16.00;68.60;;;;;;5075182;28;19952;-35
2023/04/21 11:35:40;;;;;;;;;;;16.10;68.40;;;;;;5075115;28;19974;-33
2023/04/21 11:38:06;;;;;;;;;;;16.30;68.00;;;;;;5075207;28;20347;-36
2023/04/21 11:40:43;;;;;;;;;;;16.40;67.50;;;;;;5075333;28;20011;-35
2023/04/21 11:43:08;;;;;;;;;;;16.50;67.70;;;;;;5075108;28;19913;-35
2023/04/21 11:45:34;;;;;;;;;;;16.50;67.10;;;;;;5075107;28;20395;-35
2023/04/21 11:48:16;;;;;;;;;;;16.50;67.20;;;;;;5074322;28;20552;-34
2023/04/21 11:50:50;;;;;;;;;;;16.60;66.90;;;;;;5075165;28;20287;-35
2023/04/21 11:53:16;;;;;;;;;;;16.60;66.70;;;;;;5074974;28;20011;-35
2023/04/21 11:55:42;;;;;;;;;;;16.50;66.80;;;;;;5075173;28;19947;-35
2023/04/21 11:58:08;;;;;;;;;;;16.50;66.40;;;;;;5074806;28;19965;-35
2023/04/21 12:00:33;;;;;;;;;;;16.60;66.20;;;;;;5074827;28;19916;-34
2023/04/21 12:02:59;;;;;;;;;;;16.60;66.30;;;;;;5075028;28;19913;-35
2023/04/21 12:05:25;;;;;;;;;;;16.70;66.50;;;;;;5074586;28;19916;-34
2023/04/21 12:07:54;;;;;;;;;;;16.70;66.50;;;;;;5074983;28;19918;-36
2023/04/21 12:10:20;;;;;;;;;;;16.60;66.20;;;;;;5074820;28;19939;-34
2023/04/21 12:12:46;;;;;;;;;;;16.60;66.30;;;;;;5074888;28;19916;-36
2023/04/21 12:15:16;;;;;;;;;;;16.50;65.70;;;;;;5074775;28;20363;-35
2023/04/21 12:17:43;;;;;;;;;;;16.50;66.00;;;;;;5074345;28;20037;-35
2023/04/21 12:20:08;;;;;;;;;;;16.50;66.00;;;;;;5074551;28;19913;-36
2023/04/21 12:22:34;;;;;;;;;;;16.60;65.80;;;;;;5074109;28;19912;-37
2023/04/21 12:24:59;;;;;;;;;;;16.60;65.80;;;;;;5074650;28;19916;-34
2023/04/21 12:27:25;;;;;;;;;;;16.60;65.90;;;;;;5074179;28;19913;-35
2023/04/21 12:29:51;;;;;;;;;;;16.50;65.20;;;;;;5074055;28;19917;-33
2023/04/21 12:32:16;;;;;;;;;;;16.50;65.50;;;;;;5074005;28;20370;-35
2023/04/21 12:34:42;;;;;;;;;;;16.50;65.90;;;;;;5074038;28;19962;-34
2023/04/21 12:37:07;;;;;;;;;;;16.50;66.00;;;;;;5073932;28;20049;-35
2023/04/21 12:39:33;;;;;;;;;;;16.60;66.00;;;;;;5073707;28;19916;-34
2023/04/21 12:41:58;;;;;;;;;;;16.60;66.00;;;;;;5073684;28;19912;-36
2023/04/21 12:44:24;;;;;;;;;;;16.80;66.10;;;;;;5073720;28;19926;-34
2023/04/21 12:46:50;;;;;;;;;;;16.80;65.60;;;;;;5073805;28;19913;-33
2023/04/21 12:49:16;;;;;;;;;;;16.80;65.20;;;;;;5073672;28;19999;-35
2023/04/21 12:51:42;;;;;;;;;;;16.80;65.40;;;;;;5073680;28;20434;-34
2023/04/21 12:54:07;;;;;;;;;;;16.80;65.20;;;;;;5072577;28;19912;-36
2023/04/21 12:56:33;;;;;;;;;;;16.80;65.20;;;;;;5073908;28;20292;-35
2023/04/21 12:58:58;;;;;;;;;;;16.80;64.80;;;;;;5073490;28;19920;-37
2023/04/21 13:01:24;;;;;;;;;;;16.70;65.10;;;;;;5072419;28;19947;-40
2023/04/21 13:03:49;;;;;;;;;;;16.70;65.40;;;;;;5073547;28;19919;-34
2023/04/21 13:06:15;;;;;;;;;;;16.80;65.60;;;;;;5073330;28;19923;-35
2023/04/21 13:08:41;;;;;;;;;;;16.90;65.60;;;;;;5073363;28;19956;-35
2023/04/21 13:11:06;;;;;;;;;;;17.00;65.50;;;;;;5073444;28;19956;-37
2023/04/21 13:13:32;;;;;;;;;;;17.20;65.20;;;;;;5073449;28;20384;-36
2023/04/21 13:15:57;;;;;;;;;;;17.40;64.90;;;;;;5073084;28;19956;-35
2023/04/21 13:18:23;;;;;;;;;;;17.50;64.10;;;;;;5073272;28;19917;-35
2023/04/21 13:20:56;;;;;;;;;;;17.60;63.70;;;;;;5089942;28;20276;-36
2023/04/21 13:23:21;;;;;;;;;;;17.70;63.70;;;;;;5089952;28;19919;-35
2023/04/21 13:25:49;;;;;;;;;;;17.80;62.50;;;;;;5090168;28;19916;-36
2023/04/21 13:28:15;;;;;;;;;;;17.90;62.50;;;;;;5089837;28;19913;-36
2023/04/21 13:30:41;;;;;;;;;;;18.00;62.00;;;;;;5089762;28;20003;-36
2023/04/21 13:33:06;;;;;;;;;;;18.10;61.10;;;;;;5089750;28;19955;-36
2023/04/21 13:35:32;;;;;;;;;;;18.20;61.10;;;;;;5089617;28;19944;-36
2023/04/21 13:37:57;;;;;;;;;;;18.30;61.00;;;;;;5089669;28;19970;-36
2023/04/21 13:40:23;;;;;;;;;;;18.40;60.80;;;;;;5089675;28;19965;-35
2023/04/21 13:42:48;;;;;;;;;;;18.50;60.50;;;;;;5089670;28;20356;-36
2023/04/21 13:45:14;;;;;;;;;;;18.50;60.40;;;;;;5089552;28;19912;-35
2023/04/21 13:47:39;;;;;;;;;;;18.60;60.30;;;;;;5089398;28;19956;-35
2023/04/21 13:50:05;;;;;;;;;;;18.70;60.20;;;;;;5089600;28;19912;-35
2023/04/21 13:52:30;;;;;;;;;;;18.70;60.20;;;;;;5089405;28;19913;-34
2023/04/21 13:54:56;;;;;;;;;;;18.70;59.90;;;;;;5089295;28;19919;-35
2023/04/21 13:57:23;;;;;;;;;;;18.70;59.70;;;;;;5089441;28;19912;-35
2023/04/21 13:59:49;;;;;;;;;;;18.70;60.00;;;;;;5089272;28;19916;-35
2023/04/21 14:02:15;;;;;;;;;;;18.70;60.20;;;;;;5089172;28;19974;-35
2023/04/21 14:04:40;;;;;;;;;;;18.60;60.10;;;;;;5089203;28;19912;-37
2023/04/21 14:07:06;;;;;;;;;;;18.60;60.30;;;;;;5089385;28;19966;-35
2023/04/21 14:09:32;;;;;;;;;;;18.70;60.40;;;;;;5089102;28;19999;-40
2023/04/21 14:11:58;;;;;;;;;;;19.00;60.40;;;;;;5089068;28;19959;-36
2023/04/21 14:14:23;;;;;;;;;;;19.20;60.10;;;;;;5089104;28;19951;-36